Time,TemperatureF,DewpointF,PressureIn,WindDirection,WindDirectionDegrees,WindSpeedMPH,WindSpeedGustMPH,Humidity,HourlyPrecipIn,Conditions,Clouds,dailyrainin,SoftwareType,DateUTC
2013-03-10 11:20:00,63.0,32.6,30.31,West,270,0.0,0.0,32,0.00,,,0.00,WUHU216HW,2013-03-10 15:20:00,
2013-03-10 11:25:00,53.5,33.0,30.30,West,270,1.1,2.2,46,0.00,,,0.00,WUHU216HW,2013-03-10 15:25:00,
2013-03-10 11:30:00,49.7,31.9,30.30,WNW,293,1.8,2.2,50,0.00,,,0.00,WUHU216HW,2013-03-10 15:30:00,
2013-03-10 11:35:00,48.6,31.7,30.31,West,270,1.1,1.8,52,0.00,,,0.00,WUHU216HW,2013-03-10 15:35:00,
2013-03-10 11:40:00,48.6,31.7,30.30,SW,225,1.6,1.8,52,0.00,,,0.00,WUHU216HW,2013-03-10 15:40:00,
2013-03-10 11:45:00,48.6,31.7,30.30,SW,225,1.3,2.0,52,0.00,,,0.00,WUHU216HW,2013-03-10 15:45:00,
2013-03-10 11:50:00,48.6,31.7,30.30,SW,225,1.6,2.5,52,0.00,,,0.00,WUHU216HW,2013-03-10 15:50:00,
2013-03-10 11:55:00,49.1,32.2,30.30,ESE,113,1.1,2.5,52,0.00,,,0.00,WUHU216HW,2013-03-10 15:55:00,
2013-03-10 12:00:00,49.9,33.8,30.30,ESE,113,1.3,2.5,54,0.00,,,0.00,WUHU216HW,2013-03-10 16:00:00,
2013-03-10 12:05:00,50.2,34.2,30.29,SE,135,0.9,2.5,54,0.00,,,0.00,WUHU216HW,2013-03-10 16:05:00,
2013-03-10 12:10:00,50.8,34.2,30.29,ESE,113,2.5,2.5,53,0.00,,,0.00,WUHU216HW,2013-03-10 16:10:00,
2013-03-10 12:15:00,51.1,34.6,30.29,ESE,113,1.8,3.4,53,0.00,,,0.00,WUHU216HW,2013-03-10 16:15:00,
2013-03-10 12:20:00,51.5,34.8,30.29,SE,135,2.2,3.4,53,0.00,,,0.00,WUHU216HW,2013-03-10 16:20:00,
2013-03-10 12:25:00,51.7,34.1,30.29,SE,135,0.7,3.4,51,0.00,,,0.00,WUHU216HW,2013-03-10 16:25:00,
2013-03-10 12:30:00,51.8,35.2,30.29,ESE,113,1.1,2.7,53,0.00,,,0.00,WUHU216HW,2013-03-10 16:30:00,
2013-03-10 12:35:00,51.8,34.7,30.29,ESE,113,0.4,2.2,52,0.00,,,0.00,WUHU216HW,2013-03-10 16:35:00,
2013-03-10 12:40:00,52.2,34.7,30.29,North,0,0.7,1.6,51,0.00,,,0.00,WUHU216HW,2013-03-10 16:40:00,
2013-03-10 12:45:00,52.6,34.5,30.29,North,0,0.2,1.6,50,0.00,,,0.00,WUHU216HW,2013-03-10 16:45:00,
2013-03-10 12:50:00,52.7,33.6,30.28,West,270,4.5,4.5,48,0.00,,,0.00,WUHU216HW,2013-03-10 16:50:00,
2013-03-10 12:55:00,52.4,32.1,30.28,WSW,248,2.0,4.5,46,0.00,,,0.00,WUHU216HW,2013-03-10 16:55:00,
2013-03-10 13:00:00,52.7,32.4,30.28,NW,315,1.8,3.1,46,0.00,,,0.00,WUHU216HW,2013-03-10 17:00:00,
2013-03-10 13:05:00,52.9,33.1,30.28,WSW,248,1.6,2.9,47,0.00,,,0.00,WUHU216HW,2013-03-10 17:05:00,
2013-03-10 13:10:00,53.5,33.0,30.28,SW,225,2.0,3.1,46,0.00,,,0.00,WUHU216HW,2013-03-10 17:10:00,
2013-03-10 13:15:00,53.5,33.0,30.27,WNW,293,1.8,3.4,46,0.00,,,0.00,WUHU216HW,2013-03-10 17:15:00,
2013-03-10 13:20:00,53.8,32.9,30.27,West,270,1.8,3.4,45,0.00,,,0.00,WUHU216HW,2013-03-10 17:20:00,
2013-03-10 13:25:00,54.0,33.0,30.26,West,270,2.0,3.1,45,0.00,,,0.00,WUHU216HW,2013-03-10 17:25:00,
2013-03-10 13:30:00,54.2,32.6,30.26,NW,315,2.5,3.1,44,0.00,,,0.00,WUHU216HW,2013-03-10 17:30:00,
2013-03-10 13:35:00,54.4,32.8,30.26,NW,315,3.6,3.6,44,0.00,,,0.00,WUHU216HW,2013-03-10 17:35:00,
2013-03-10 13:40:00,54.5,32.4,30.26,WSW,248,2.5,3.8,43,0.00,,,0.00,WUHU216HW,2013-03-10 17:40:00,
2013-03-10 13:45:00,54.7,33.1,30.26,West,270,2.0,3.8,44,0.00,,,0.00,WUHU216HW,2013-03-10 17:45:00,
2013-03-10 13:50:00,54.9,32.7,30.26,WNW,293,3.4,3.8,43,0.00,,,0.00,WUHU216HW,2013-03-10 17:50:00,
2013-03-10 13:55:00,55.1,32.3,30.25,West,270,2.9,3.8,42,0.00,,,0.00,WUHU216HW,2013-03-10 17:55:00,
2013-03-10 14:00:00,55.3,32.5,30.24,WSW,248,1.1,3.4,42,0.00,,,0.00,WUHU216HW,2013-03-10 18:00:00,
2013-03-10 14:05:00,55.4,33.2,30.24,West,270,1.6,3.4,43,0.00,,,0.00,WUHU216HW,2013-03-10 18:05:00,
2013-03-10 14:10:00,55.8,33.5,30.24,WSW,248,3.4,3.4,43,0.00,,,0.00,WUHU216HW,2013-03-10 18:10:00,
2013-03-10 14:15:00,55.8,32.4,30.24,WNW,293,2.2,3.4,41,0.00,,,0.00,WUHU216HW,2013-03-10 18:15:00,
2013-03-10 14:20:00,56.0,32.6,30.23,NW,315,1.1,2.5,41,0.00,,,0.00,WUHU216HW,2013-03-10 18:20:00,
2013-03-10 14:25:00,56.2,33.3,30.23,SSE,158,0.9,2.5,42,0.00,,,0.00,WUHU216HW,2013-03-10 18:25:00,
2013-03-10 14:30:00,56.5,33.0,30.23,West,270,1.1,2.5,41,0.00,,,0.00,WUHU216HW,2013-03-10 18:30:00,
2013-03-10 14:35:00,56.5,33.0,30.23,WNW,293,2.2,3.6,41,0.00,,,0.00,WUHU216HW,2013-03-10 18:35:00,
2013-03-10 14:40:00,56.7,33.2,30.23,WNW,293,4.7,4.7,41,0.00,,,0.00,WUHU216HW,2013-03-10 18:40:00,
2013-03-10 14:45:00,56.7,33.8,30.23,WSW,248,2.7,4.7,42,0.00,,,0.00,WUHU216HW,2013-03-10 18:45:00,
2013-03-10 14:50:00,56.9,33.4,30.23,WNW,293,1.3,3.1,41,0.00,,,0.00,WUHU216HW,2013-03-10 18:50:00,
2013-03-10 14:55:00,57.1,34.1,30.23,West,270,0.7,3.1,42,0.00,,,0.00,WUHU216HW,2013-03-10 18:55:00,
2013-03-10 15:00:00,57.4,33.8,30.23,South,180,0.9,2.5,41,0.00,,,0.00,WUHU216HW,2013-03-10 19:00:00,
2013-03-10 15:05:00,57.4,33.8,30.23,NW,315,0.4,2.5,41,0.00,,,0.00,WUHU216HW,2013-03-10 19:05:00,
2013-03-10 15:10:00,57.6,32.8,30.23,NNE,23,0.4,3.4,39,0.00,,,0.00,WUHU216HW,2013-03-10 19:10:00,
2013-03-10 15:15:00,58.0,34.4,30.23,SE,135,1.6,3.4,41,0.00,,,0.00,WUHU216HW,2013-03-10 19:15:00,
2013-03-10 15:20:00,58.1,32.5,30.23,West,270,1.1,2.5,38,0.00,,,0.00,WUHU216HW,2013-03-10 19:20:00,
2013-03-10 15:25:00,58.3,34.1,30.23,SW,225,0.7,1.1,40,0.00,,,0.00,WUHU216HW,2013-03-10 19:25:00,
2013-03-10 15:30:00,58.7,35.0,30.22,SW,225,0.4,1.1,41,0.00,,,0.00,WUHU216HW,2013-03-10 19:30:00,
2013-03-10 15:35:00,58.5,34.3,30.23,North,0,0.4,1.8,40,0.00,,,0.00,WUHU216HW,2013-03-10 19:35:00,
2013-03-10 15:40:00,58.9,33.8,30.22,WNW,293,0.9,1.8,39,0.00,,,0.00,WUHU216HW,2013-03-10 19:40:00,
2013-03-10 15:45:00,59.4,33.7,30.22,NW,315,0.4,2.2,38,0.00,,,0.00,WUHU216HW,2013-03-10 19:45:00,
2013-03-10 15:50:00,59.4,32.9,30.22,ENE,68,1.8,2.2,37,0.00,,,0.00,WUHU216HW,2013-03-10 19:50:00,
2013-03-10 15:55:00,59.2,32.1,30.22,ENE,68,1.8,2.0,36,0.00,,,0.00,WUHU216HW,2013-03-10 19:55:00,
2013-03-10 16:00:00,59.0,29.8,30.22,ESE,113,3.6,3.6,33,0.00,,,0.00,WUHU216HW,2013-03-10 20:00:00,
2013-03-10 16:05:00,58.9,31.8,30.22,East,90,1.3,3.6,36,0.00,,,0.00,WUHU216HW,2013-03-10 20:05:00,
2013-03-10 16:10:00,58.9,33.8,30.22,SW,225,0.7,5.4,39,0.00,,,0.00,WUHU216HW,2013-03-10 20:10:00,
2013-03-10 16:15:00,59.0,33.3,30.22,ESE,113,1.1,5.4,38,0.00,,,0.00,WUHU216HW,2013-03-10 20:15:00,
2013-03-10 16:20:00,59.0,33.3,30.21,ESE,113,3.8,3.8,38,0.00,,,0.00,WUHU216HW,2013-03-10 20:20:00,
2013-03-10 16:25:00,59.0,34.0,30.21,SE,135,8.1,8.1,39,0.00,,,0.00,WUHU216HW,2013-03-10 20:25:00,
2013-03-10 16:30:00,58.9,33.2,30.21,ESE,113,8.1,8.1,38,0.00,,,0.00,WUHU216HW,2013-03-10 20:30:00,
2013-03-10 16:35:00,58.5,33.6,30.21,SSE,158,5.4,8.1,39,0.00,,,0.00,WUHU216HW,2013-03-10 20:35:00,
2013-03-10 16:40:00,58.0,33.8,30.21,ESE,113,7.6,8.3,40,0.00,,,0.00,WUHU216HW,2013-03-10 20:40:00,
2013-03-10 16:45:00,57.4,33.8,30.21,ESE,113,6.7,8.3,41,0.00,,,0.00,WUHU216HW,2013-03-10 20:45:00,
2013-03-10 16:50:00,57.6,34.0,30.21,ESE,113,4.0,7.6,41,0.00,,,0.00,WUHU216HW,2013-03-10 20:50:00,
2013-03-10 16:55:00,57.8,33.0,30.20,ESE,113,6.3,7.6,39,0.00,,,0.00,WUHU216HW,2013-03-10 20:55:00,
2013-03-10 17:00:00,58.0,34.4,30.20,ESE,113,6.5,7.6,41,0.00,,,0.00,WUHU216HW,2013-03-10 21:00:00,
2013-03-10 17:05:00,58.1,33.9,30.20,SE,135,4.9,7.6,40,0.00,,,0.00,WUHU216HW,2013-03-10 21:05:00,
2013-03-10 17:10:00,58.3,34.1,30.20,SE,135,2.2,7.4,40,0.00,,,0.00,WUHU216HW,2013-03-10 21:10:00,
2013-03-10 17:15:00,58.3,33.4,30.19,SE,135,6.5,7.4,39,0.00,,,0.00,WUHU216HW,2013-03-10 21:15:00,
2013-03-10 17:20:00,58.3,34.1,30.19,ESE,113,2.7,6.5,40,0.00,,,0.00,WUHU216HW,2013-03-10 21:20:00,
2013-03-10 17:25:00,58.1,33.9,30.19,SE,135,2.9,5.4,40,0.00,,,0.00,WUHU216HW,2013-03-10 21:25:00,
2013-03-10 17:30:00,58.0,34.4,30.19,ESE,113,1.6,5.4,41,0.00,,,0.00,WUHU216HW,2013-03-10 21:30:00,
2013-03-10 17:35:00,57.8,34.2,30.19,East,90,2.7,4.0,41,0.00,,,0.00,WUHU216HW,2013-03-10 21:35:00,
2013-03-10 17:40:00,57.4,35.0,30.19,ESE,113,5.6,5.6,43,0.00,,,0.00,WUHU216HW,2013-03-10 21:40:00,
2013-03-10 17:45:00,57.2,34.3,30.19,ESE,113,4.3,7.2,42,0.00,,,0.00,WUHU216HW,2013-03-10 21:45:00,
2013-03-10 17:51:00,56.9,33.9,30.19,ESE,113,4.5,7.2,42,0.00,,,0.00,WUHU216HW,2013-03-10 21:51:00,
2013-03-10 17:56:00,56.5,33.6,30.19,East,90,2.0,5.4,42,0.00,,,0.00,WUHU216HW,2013-03-10 21:56:00,
2013-03-10 18:01:00,56.0,33.7,30.19,East,90,2.5,5.4,43,0.00,,,0.00,WUHU216HW,2013-03-10 22:01:00,
2013-03-10 18:06:00,55.4,33.2,30.20,East,90,1.1,3.1,43,0.00,,,0.00,WUHU216HW,2013-03-10 22:06:00,
2013-03-10 18:11:00,55.1,33.4,30.20,ESE,113,1.1,2.5,44,0.00,,,0.00,WUHU216HW,2013-03-10 22:11:00,
2013-03-10 18:16:00,54.9,33.2,30.20,ESE,113,1.8,4.0,44,0.00,,,0.00,WUHU216HW,2013-03-10 22:16:00,
2013-03-10 18:21:00,54.7,33.1,30.20,ESE,113,2.5,4.0,44,0.00,,,0.00,WUHU216HW,2013-03-10 22:21:00,
2013-03-10 18:26:00,54.7,33.1,30.19,ESE,113,3.6,3.6,44,0.00,,,0.00,WUHU216HW,2013-03-10 22:26:00,
2013-03-10 18:31:00,54.9,33.2,30.20,ESE,113,3.1,3.6,44,0.00,,,0.00,WUHU216HW,2013-03-10 22:31:00,
2013-03-10 18:36:00,55.1,33.4,30.20,ESE,113,1.1,3.1,44,0.00,,,0.00,WUHU216HW,2013-03-10 22:36:00,
2013-03-10 18:41:00,55.4,33.2,30.20,ENE,68,1.6,2.9,43,0.00,,,0.00,WUHU216HW,2013-03-10 22:41:00,
2013-03-10 18:46:00,55.3,32.5,30.20,ENE,68,2.2,2.2,42,0.00,,,0.00,WUHU216HW,2013-03-10 22:46:00,
2013-03-10 18:51:00,55.1,32.9,30.21,SE,135,1.6,4.0,43,0.00,,,0.00,WUHU216HW,2013-03-10 22:51:00,
2013-03-10 18:56:00,54.9,32.7,30.21,ESE,113,2.0,4.0,43,0.00,,,0.00,WUHU216HW,2013-03-10 22:56:00,
2013-03-10 19:02:00,54.5,32.4,30.21,SE,135,1.1,3.1,43,0.00,,,0.00,WUHU216HW,2013-03-10 23:02:00,
2013-03-10 19:07:00,54.4,32.2,30.22,SE,135,0.4,2.0,43,0.00,,,0.00,WUHU216HW,2013-03-10 23:07:00,
2013-03-10 19:12:00,54.0,31.3,30.22,East,90,1.6,1.6,42,0.00,,,0.00,WUHU216HW,2013-03-10 23:12:00,
2013-03-10 19:17:00,53.5,31.4,30.21,East,90,1.1,1.8,43,0.00,,,0.00,WUHU216HW,2013-03-10 23:17:00,
2013-03-10 19:22:00,52.9,31.5,30.22,East,90,0.7,1.8,44,0.00,,,0.00,WUHU216HW,2013-03-10 23:22:00,
2013-03-10 19:27:00,52.4,29.9,30.22,ENE,68,1.1,1.8,42,0.00,,,0.00,WUHU216HW,2013-03-10 23:27:00,
2013-03-10 19:32:00,52.2,30.2,30.22,East,90,1.1,1.3,43,0.00,,,0.00,WUHU216HW,2013-03-10 23:32:00,
2013-03-10 19:37:00,51.8,30.0,30.22,East,90,0.0,1.3,43,0.00,,,0.00,WUHU216HW,2013-03-10 23:37:00,
2013-03-10 19:42:00,51.8,30.0,30.22,ESE,113,0.9,0.9,43,0.00,,,0.00,WUHU216HW,2013-03-10 23:42:00,
2013-03-10 19:47:00,51.7,29.3,30.22,ESE,113,0.2,0.9,42,0.00,,,0.00,WUHU216HW,2013-03-10 23:47:00,
2013-03-10 19:52:00,51.5,29.1,30.22,East,90,0.0,0.4,42,0.00,,,0.00,WUHU216HW,2013-03-10 23:52:00,
2013-03-10 19:57:00,51.5,29.1,30.22,SSW,203,0.0,0.2,42,0.00,,,0.00,WUHU216HW,2013-03-10 23:57:00,
2013-03-10 20:02:00,51.5,29.1,30.22,SSE,158,1.1,1.8,42,0.00,,,0.00,WUHU216HW,2013-03-11 00:02:00,
2013-03-10 20:07:00,51.7,29.8,30.22,SSE,158,0.0,1.8,43,0.00,,,0.00,WUHU216HW,2013-03-11 00:07:00,
2013-03-10 20:12:00,51.5,29.1,30.21,ESE,113,0.0,1.1,42,0.00,,,0.00,WUHU216HW,2013-03-11 00:12:00,
2013-03-10 20:17:00,51.5,29.1,30.21,ENE,68,0.2,1.1,42,0.00,,,0.00,WUHU216HW,2013-03-11 00:17:00,
2013-03-10 20:22:00,51.5,29.6,30.21,SE,135,1.6,2.5,43,0.00,,,0.00,WUHU216HW,2013-03-11 00:22:00,
2013-03-10 20:27:00,51.3,28.9,30.21,ESE,113,0.4,2.5,42,0.00,,,0.00,WUHU216HW,2013-03-11 00:27:00,
2013-03-10 20:32:00,51.1,29.3,30.21,SW,225,0.0,2.0,43,0.00,,,0.00,WUHU216HW,2013-03-11 00:32:00,
2013-03-10 20:37:00,51.5,29.6,30.22,West,270,1.8,2.5,43,0.00,,,0.00,WUHU216HW,2013-03-11 00:37:00,
2013-03-10 20:42:00,50.9,29.7,30.22,West,270,0.9,2.5,44,0.00,,,0.00,WUHU216HW,2013-03-11 00:42:00,
2013-03-10 20:47:00,50.8,29.0,30.22,NW,315,0.4,1.3,43,0.00,,,0.00,WUHU216HW,2013-03-11 00:47:00,
2013-03-10 20:52:00,50.8,29.5,30.22,West,270,0.9,1.3,44,0.00,,,0.00,WUHU216HW,2013-03-11 00:52:00,
2013-03-10 20:57:00,50.4,28.6,30.22,West,270,0.0,1.1,43,0.00,,,0.00,WUHU216HW,2013-03-11 00:57:00,
2013-03-10 21:02:00,50.2,28.4,30.22,West,270,0.7,0.7,43,0.00,,,0.00,WUHU216HW,2013-03-11 01:02:00,
2013-03-10 21:07:00,50.8,29.0,30.22,West,270,0.0,1.1,43,0.00,,,0.00,WUHU216HW,2013-03-11 01:07:00,
2013-03-10 21:12:00,50.6,28.3,30.22,West,270,0.9,1.1,42,0.00,,,0.00,WUHU216HW,2013-03-11 01:12:00,
2013-03-10 21:17:00,50.8,29.0,30.22,West,270,0.0,0.9,43,0.00,,,0.00,WUHU216HW,2013-03-11 01:17:00,
2013-03-10 21:22:00,50.9,28.5,30.22,NW,315,0.4,0.4,42,0.00,,,0.00,WUHU216HW,2013-03-11 01:22:00,
2013-03-10 21:27:00,51.3,28.4,30.22,SSE,158,0.0,1.3,41,0.00,,,0.00,WUHU216HW,2013-03-11 01:27:00,
2013-03-10 21:32:00,51.3,27.8,30.22,SSE,158,0.0,1.3,40,0.00,,,0.00,WUHU216HW,2013-03-11 01:32:00,
2013-03-10 21:37:00,51.1,27.6,30.22,ESE,113,0.2,1.3,40,0.00,,,0.00,WUHU216HW,2013-03-11 01:37:00,
2013-03-10 21:42:00,50.8,27.3,30.22,SSE,158,0.7,3.4,40,0.00,,,0.00,WUHU216HW,2013-03-11 01:42:00,
2013-03-10 21:47:00,50.8,27.3,30.22,SSW,203,0.4,3.4,40,0.00,,,0.00,WUHU216HW,2013-03-11 01:47:00,
2013-03-10 21:52:00,50.9,26.7,30.22,ESE,113,1.1,3.8,39,0.00,,,0.00,WUHU216HW,2013-03-11 01:52:00,
2013-03-10 21:57:00,51.1,27.6,30.22,SE,135,0.4,3.8,40,0.00,,,0.00,WUHU216HW,2013-03-11 01:57:00,
2013-03-10 22:03:00,51.5,27.9,30.21,East,90,1.8,4.3,40,0.00,,,0.00,WUHU216HW,2013-03-11 02:03:00,
2013-03-10 22:08:00,51.1,27.6,30.21,SE,135,0.0,4.3,40,0.00,,,0.00,WUHU216HW,2013-03-11 02:08:00,
2013-03-10 22:13:00,50.8,27.3,30.21,WSW,248,1.3,2.0,40,0.00,,,0.00,WUHU216HW,2013-03-11 02:13:00,
2013-03-10 22:18:00,50.8,27.3,30.22,East,90,1.1,4.0,40,0.00,,,0.00,WUHU216HW,2013-03-11 02:18:00,
2013-03-10 22:23:00,50.9,26.7,30.21,ENE,68,1.1,4.0,39,0.00,,,0.00,WUHU216HW,2013-03-11 02:23:00,
2013-03-10 22:28:00,50.8,27.8,30.21,WSW,248,2.0,3.4,41,0.00,,,0.00,WUHU216HW,2013-03-11 02:28:00,
2013-03-10 22:33:00,50.8,27.3,30.22,SE,135,0.4,3.4,40,0.00,,,0.00,WUHU216HW,2013-03-11 02:33:00,
2013-03-10 22:38:00,51.1,26.9,30.22,ESE,113,2.7,4.0,39,0.00,,,0.00,WUHU216HW,2013-03-11 02:38:00,
2013-03-10 22:43:00,51.3,27.1,30.21,ESE,113,1.1,4.0,39,0.00,,,0.00,WUHU216HW,2013-03-11 02:43:00,
2013-03-10 22:48:00,51.1,27.6,30.21,SE,135,1.1,4.0,40,0.00,,,0.00,WUHU216HW,2013-03-11 02:48:00,
2013-03-10 22:53:00,50.8,27.8,30.22,East,90,3.4,3.4,41,0.00,,,0.00,WUHU216HW,2013-03-11 02:53:00,
2013-03-10 22:58:00,50.8,27.8,30.21,SE,135,0.0,4.0,41,0.00,,,0.00,WUHU216HW,2013-03-11 02:58:00,
2013-03-10 23:03:00,50.4,28.1,30.21,West,270,0.0,4.0,42,0.00,,,0.00,WUHU216HW,2013-03-11 03:03:00,
2013-03-10 23:08:00,50.0,27.7,30.21,WSW,248,0.9,2.0,42,0.00,,,0.00,WUHU216HW,2013-03-11 03:08:00,
2013-03-10 23:13:00,49.9,27.0,30.21,West,270,0.0,1.1,41,0.00,,,0.00,WUHU216HW,2013-03-11 03:13:00,
2013-03-10 23:18:00,49.5,26.7,30.21,SW,225,0.0,1.8,41,0.00,,,0.00,WUHU216HW,2013-03-11 03:18:00,
2013-03-10 23:23:00,49.5,26.7,30.21,SSW,203,0.4,1.8,41,0.00,,,0.00,WUHU216HW,2013-03-11 03:23:00,
2013-03-10 23:28:00,49.3,27.1,30.21,WSW,248,0.0,1.3,42,0.00,,,0.00,WUHU216HW,2013-03-11 03:28:00,
2013-03-10 23:33:00,49.1,26.9,30.21,West,270,0.0,1.3,42,0.00,,,0.00,WUHU216HW,2013-03-11 03:33:00,
2013-03-10 23:38:00,49.0,26.2,30.21,WSW,248,0.0,0.4,41,0.00,,,0.00,WUHU216HW,2013-03-11 03:38:00,
2013-03-10 23:43:00,48.8,26.0,30.20,South,180,0.7,0.7,41,0.00,,,0.00,WUHU216HW,2013-03-11 03:43:00,
2013-03-10 23:48:00,48.6,26.5,30.20,SW,225,0.0,0.9,42,0.00,,,0.00,WUHU216HW,2013-03-11 03:48:00,
2013-03-10 23:53:00,48.6,25.9,30.21,ESE,113,0.9,1.1,41,0.00,,,0.00,WUHU216HW,2013-03-11 03:53:00,
2013-03-10 23:58:00,48.2,26.6,30.20,SW,225,0.9,4.0,43,0.00,,,0.00,WUHU216HW,2013-03-11 03:58:00,